sensor_id;sensor_type;location;lat;lon;timestamp;pressure;altitude;pressure_sealevel;temperature;humidity
61537;BME280;48695;53.480;-6.300;2022-09-09T00:04:24;100013.28;;;19.33;67.49
61537;BME280;48695;53.480;-6.300;2022-09-09T00:09:27;100017.31;;;19.26;68.36
61537;BME280;48695;53.480;-6.300;2022-09-09T00:12:00;100006.28;;;19.19;68.39
61537;BME280;48695;53.480;-6.300;2022-09-09T00:20:12;100021.56;;;19.16;69.55
61537;BME280;48695;53.480;-6.300;2022-09-09T00:22:41;100024.19;;;19.16;68.89
61537;BME280;48695;53.480;-6.300;2022-09-09T00:25:42;100023.31;;;19.15;68.01
61537;BME280;48695;53.480;-6.300;2022-09-09T00:28:18;100019.09;;;19.13;68.37
61537;BME280;48695;53.480;-6.300;2022-09-09T00:30:45;100019.53;;;19.07;69.15
61537;BME280;48695;53.480;-6.300;2022-09-09T00:33:15;100011.47;;;18.96;69.20
61537;BME280;48695;53.480;-6.300;2022-09-09T00:35:46;100022.38;;;19.04;68.87
61537;BME280;48695;53.480;-6.300;2022-09-09T00:38:19;100019.94;;;19.01;68.21
61537;BME280;48695;53.480;-6.300;2022-09-09T01:03:02;99968.00;;;18.60;68.83
61537;BME280;48695;53.480;-6.300;2022-09-09T01:05:12;99999.09;;;18.71;69.47
61537;BME280;48695;53.480;-6.300;2022-09-09T01:07:40;99995.00;;;18.65;69.87
61537;BME280;48695;53.480;-6.300;2022-09-09T01:13:02;99990.34;;;18.56;69.85
61537;BME280;48695;53.480;-6.300;2022-09-09T01:15:31;100000.09;;;18.55;70.19
61537;BME280;48695;53.480;-6.300;2022-09-09T01:18:10;99997.53;;;18.54;70.19
61537;BME280;48695;53.480;-6.300;2022-09-09T01:26:39;100003.22;;;18.48;69.67
61537;BME280;48695;53.480;-6.300;2022-09-09T01:29:13;99998.13;;;18.45;70.10
61537;BME280;48695;53.480;-6.300;2022-09-09T01:31:42;99986.28;;;18.37;70.75
61537;BME280;48695;53.480;-6.300;2022-09-09T01:34:16;99989.88;;;18.36;71.07
61537;BME280;48695;53.480;-6.300;2022-09-09T01:37:02;99989.47;;;18.42;69.36
61537;BME280;48695;53.480;-6.300;2022-09-09T01:39:30;99986.47;;;18.34;70.36
61537;BME280;48695;53.480;-6.300;2022-09-09T01:41:56;99996.84;;;18.37;70.51
61537;BME280;48695;53.480;-6.300;2022-09-09T01:44:22;99999.59;;;18.36;70.31
61537;BME280;48695;53.480;-6.300;2022-09-09T01:46:48;100008.50;;;18.35;70.97
61537;BME280;48695;53.480;-6.300;2022-09-09T01:49:14;99995.34;;;18.33;70.68
61537;BME280;48695;53.480;-6.300;2022-09-09T01:51:40;99997.47;;;18.28;70.99
61537;BME280;48695;53.480;-6.300;2022-09-09T01:54:08;100000.75;;;18.32;70.60
61537;BME280;48695;53.480;-6.300;2022-09-09T01:56:53;100002.31;;;18.34;70.16
61537;BME280;48695;53.480;-6.300;2022-09-09T02:04:52;99994.50;;;18.33;69.75
61537;BME280;48695;53.480;-6.300;2022-09-09T02:07:34;99990.19;;;18.32;69.67
61537;BME280;48695;53.480;-6.300;2022-09-09T02:10:21;99988.56;;;18.29;69.88
61537;BME280;48695;53.480;-6.300;2022-09-09T02:12:54;99992.16;;;18.28;70.34
61537;BME280;48695;53.480;-6.300;2022-09-09T02:15:37;99997.47;;;18.28;70.05
61537;BME280;48695;53.480;-6.300;2022-09-09T02:18:07;99982.19;;;18.19;70.36
61537;BME280;48695;53.480;-6.300;2022-09-09T02:20:35;99993.31;;;18.24;70.89
61537;BME280;48695;53.480;-6.300;2022-09-09T02:23:04;99996.06;;;18.23;70.73
61537;BME280;48695;53.480;-6.300;2022-09-09T02:25:29;100000.31;;;18.25;68.96
61537;BME280;48695;53.480;-6.300;2022-09-09T02:27:55;100001.66;;;18.18;70.53
61537;BME280;48695;53.480;-6.300;2022-09-09T02:30:24;99974.13;;;18.08;70.73
61537;BME280;48695;53.480;-6.300;2022-09-09T02:32:51;99992.22;;;18.14;71.19
61537;BME280;48695;53.480;-6.300;2022-09-09T02:35:21;99977.72;;;18.07;71.21
61537;BME280;48695;53.480;-6.300;2022-09-09T02:37:51;99987.88;;;18.13;71.06
61537;BME280;48695;53.480;-6.300;2022-09-09T02:40:18;99981.50;;;18.03;71.03
61537;BME280;48695;53.480;-6.300;2022-09-09T02:42:46;99985.47;;;18.10;71.69
61537;BME280;48695;53.480;-6.300;2022-09-09T02:45:19;99992.34;;;18.12;71.09
61537;BME280;48695;53.480;-6.300;2022-09-09T02:50:29;99990.75;;;18.10;70.29
61537;BME280;48695;53.480;-6.300;2022-09-09T02:53:10;99988.28;;;18.07;70.86
61537;BME280;48695;53.480;-6.300;2022-09-09T02:55:55;99982.06;;;18.08;70.61
61537;BME280;48695;53.480;-6.300;2022-09-09T02:58:23;99983.19;;;18.04;71.66
61537;BME280;48695;53.480;-6.300;2022-09-09T03:00:50;99972.63;;;18.04;72.33
61537;BME280;48695;53.480;-6.300;2022-09-09T03:03:17;99983.41;;;18.01;71.79
61537;BME280;48695;53.480;-6.300;2022-09-09T03:05:44;99982.56;;;18.00;71.74
61537;BME280;48695;53.480;-6.300;2022-09-09T03:08:10;99967.63;;;17.99;71.87
61537;BME280;48695;53.480;-6.300;2022-09-09T03:10:36;99978.31;;;17.98;72.48
61537;BME280;48695;53.480;-6.300;2022-09-09T03:13:02;99964.00;;;17.87;72.61
61537;BME280;48695;53.480;-6.300;2022-09-09T03:15:29;99984.75;;;17.94;72.61
61537;BME280;48695;53.480;-6.300;2022-09-09T03:17:57;99973.44;;;17.92;72.79
61537;BME280;48695;53.480;-6.300;2022-09-09T03:20:26;99968.56;;;17.85;72.58
61537;BME280;48695;53.480;-6.300;2022-09-09T03:22:55;99972.78;;;17.88;72.45
61537;BME280;48695;53.480;-6.300;2022-09-09T03:25:22;99972.16;;;17.84;73.03
61537;BME280;48695;53.480;-6.300;2022-09-09T03:27:52;99976.56;;;17.84;72.89
61537;BME280;48695;53.480;-6.300;2022-09-09T03:30:23;99975.94;;;17.80;73.44
61537;BME280;48695;53.480;-6.300;2022-09-09T03:32:49;99977.91;;;17.77;73.16
61537;BME280;48695;53.480;-6.300;2022-09-09T03:35:14;99971.91;;;17.75;73.13
61537;BME280;48695;53.480;-6.300;2022-09-09T03:37:41;99974.78;;;17.70;73.95
61537;BME280;48695;53.480;-6.300;2022-09-09T03:40:07;99976.66;;;17.68;74.00
61537;BME280;48695;53.480;-6.300;2022-09-09T03:42:35;99967.44;;;17.61;73.48
61537;BME280;48695;53.480;-6.300;2022-09-09T03:45:02;99967.44;;;17.61;73.81
61537;BME280;48695;53.480;-6.300;2022-09-09T03:47:28;99967.56;;;17.59;73.90
61537;BME280;48695;53.480;-6.300;2022-09-09T03:49:54;99963.53;;;17.54;74.03
61537;BME280;48695;53.480;-6.300;2022-09-09T03:52:19;99967.06;;;17.53;74.02
61537;BME280;48695;53.480;-6.300;2022-09-09T03:54:46;99972.34;;;17.53;74.37
61537;BME280;48695;53.480;-6.300;2022-09-09T03:57:13;99958.81;;;17.45;74.28
61537;BME280;48695;53.480;-6.300;2022-09-09T03:59:41;99979.44;;;17.52;74.28
61537;BME280;48695;53.480;-6.300;2022-09-09T04:02:07;99981.34;;;17.50;74.35
61537;BME280;48695;53.480;-6.300;2022-09-09T04:04:32;99965.41;;;17.37;74.48
61537;BME280;48695;53.480;-6.300;2022-09-09T04:06:58;99973.97;;;17.41;73.92
61537;BME280;48695;53.480;-6.300;2022-09-09T04:09:23;99981.63;;;17.46;74.47
61537;BME280;48695;53.480;-6.300;2022-09-09T04:11:48;99979.09;;;17.44;74.96
61537;BME280;48695;53.480;-6.300;2022-09-09T04:14:14;99968.25;;;17.34;74.68
61537;BME280;48695;53.480;-6.300;2022-09-09T04:16:40;99984.53;;;17.41;74.86
61537;BME280;48695;53.480;-6.300;2022-09-09T04:19:13;99973.31;;;17.37;74.20
61537;BME280;48695;53.480;-6.300;2022-09-09T04:21:42;99969.38;;;17.30;74.59
61537;BME280;48695;53.480;-6.300;2022-09-09T04:24:08;99981.34;;;17.36;75.01
61537;BME280;48695;53.480;-6.300;2022-09-09T04:26:34;99984.81;;;17.36;74.85
61537;BME280;48695;53.480;-6.300;2022-09-09T04:29:00;99990.22;;;17.35;75.27
61537;BME280;48695;53.480;-6.300;2022-09-09T04:31:26;99992.75;;;17.36;75.55
61537;BME280;48695;53.480;-6.300;2022-09-09T04:33:51;99980.69;;;17.32;75.06
61537;BME280;48695;53.480;-6.300;2022-09-09T04:36:17;99991.06;;;17.35;75.55
61537;BME280;48695;53.480;-6.300;2022-09-09T04:38:46;99989.38;;;17.34;75.36
61537;BME280;48695;53.480;-6.300;2022-09-09T04:41:12;99980.88;;;17.29;74.71
61537;BME280;48695;53.480;-6.300;2022-09-09T04:43:39;99984.53;;;17.27;75.43
61537;BME280;48695;53.480;-6.300;2022-09-09T04:46:05;99997.34;;;17.33;75.58
61537;BME280;48695;53.480;-6.300;2022-09-09T04:48:31;99985.94;;;17.32;75.52
61537;BME280;48695;53.480;-6.300;2022-09-09T04:51:06;99997.28;;;17.34;74.47
61537;BME280;48695;53.480;-6.300;2022-09-09T04:53:34;99989.72;;;17.28;75.58
61537;BME280;48695;53.480;-6.300;2022-09-09T04:56:09;99993.97;;;17.31;74.42
61537;BME280;48695;53.480;-6.300;2022-09-09T04:58:36;99981.25;;;17.23;75.78
61537;BME280;48695;53.480;-6.300;2022-09-09T05:01:09;99986.16;;;17.29;75.11
61537;BME280;48695;53.480;-6.300;2022-09-09T05:03:35;99988.03;;;17.27;75.62
61537;BME280;48695;53.480;-6.300;2022-09-09T05:06:20;99990.50;;;17.30;74.03
61537;BME280;48695;53.480;-6.300;2022-09-09T05:08:46;99996.91;;;17.26;75.58
61537;BME280;48695;53.480;-6.300;2022-09-09T05:13:40;99997.84;;;17.25;75.52
61537;BME280;48695;53.480;-6.300;2022-09-09T05:16:06;99998.78;;;17.24;76.01
61537;BME280;48695;53.480;-6.300;2022-09-09T05:18:31;99990.38;;;17.18;76.15
61537;BME280;48695;53.480;-6.300;2022-09-09T05:20:59;100010.09;;;17.26;75.73
61537;BME280;48695;53.480;-6.300;2022-09-09T05:23:25;100007.63;;;17.23;75.83
61537;BME280;48695;53.480;-6.300;2022-09-09T05:25:56;100003.88;;;17.27;76.11
61537;BME280;48695;53.480;-6.300;2022-09-09T05:28:23;99998.97;;;17.21;76.21
61537;BME280;48695;53.480;-6.300;2022-09-09T05:31:11;100005.38;;;17.31;73.80
61537;BME280;48695;53.480;-6.300;2022-09-09T05:33:37;100007.28;;;17.29;75.54
61537;BME280;48695;53.480;-6.300;2022-09-09T05:36:22;100010.47;;;17.34;74.44
61537;BME280;48695;53.480;-6.300;2022-09-09T05:38:47;100018.66;;;17.30;75.95
61537;BME280;48695;53.480;-6.300;2022-09-09T05:41:14;100022.16;;;17.30;75.91
61537;BME280;48695;53.480;-6.300;2022-09-09T05:43:43;100009.97;;;17.28;75.79
61537;BME280;48695;53.480;-6.300;2022-09-09T05:46:18;100015.75;;;17.34;75.21
61537;BME280;48695;53.480;-6.300;2022-09-09T05:48:45;100025.47;;;17.34;75.69
61537;BME280;48695;53.480;-6.300;2022-09-09T05:51:16;100023.75;;;17.33;76.22
61537;BME280;48695;53.480;-6.300;2022-09-09T05:53:43;100030.63;;;17.35;75.74
61537;BME280;48695;53.480;-6.300;2022-09-09T05:56:16;100028.75;;;17.37;75.45
61537;BME280;48695;53.480;-6.300;2022-09-09T05:58:43;100028.00;;;17.35;75.52
61537;BME280;48695;53.480;-6.300;2022-09-09T06:01:20;100041.75;;;17.41;75.08
61537;BME280;48695;53.480;-6.300;2022-09-09T06:03:46;100039.03;;;17.42;73.52
61537;BME280;48695;53.480;-6.300;2022-09-09T06:06:17;100045.34;;;17.40;75.23
61537;BME280;48695;53.480;-6.300;2022-09-09T06:08:44;100044.41;;;17.41;75.46
61537;BME280;48695;53.480;-6.300;2022-09-09T06:11:15;100050.63;;;17.40;75.78
61537;BME280;48695;53.480;-6.300;2022-09-09T06:13:41;100048.06;;;17.38;76.22
61537;BME280;48695;53.480;-6.300;2022-09-09T06:16:13;100050.53;;;17.41;75.39
61537;BME280;48695;53.480;-6.300;2022-09-09T06:18:39;100051.53;;;17.38;76.22
61537;BME280;48695;53.480;-6.300;2022-09-09T06:21:09;100059.28;;;17.42;76.31
61537;BME280;48695;53.480;-6.300;2022-09-09T06:23:34;100068.16;;;17.41;76.43
61537;BME280;48695;53.480;-6.300;2022-09-09T06:26:33;100071.19;;;17.49;75.20
61537;BME280;48695;53.480;-6.300;2022-09-09T06:29:00;100067.78;;;17.47;76.18
61537;BME280;48695;53.480;-6.300;2022-09-09T06:31:27;100075.53;;;17.50;76.31
61537;BME280;48695;53.480;-6.300;2022-09-09T06:33:56;100078.16;;;17.50;76.02
61537;BME280;48695;53.480;-6.300;2022-09-09T06:36:26;100060.06;;;17.44;76.14
61537;BME280;48695;53.480;-6.300;2022-09-09T06:38:52;100083.06;;;17.56;76.20
61537;BME280;48695;53.480;-6.300;2022-09-09T06:41:19;100092.56;;;17.58;76.24
61537;BME280;48695;53.480;-6.300;2022-09-09T06:43:48;100094.06;;;17.62;75.81
61537;BME280;48695;53.480;-6.300;2022-09-09T06:46:18;100097.50;;;17.64;75.94
61537;BME280;48695;53.480;-6.300;2022-09-09T06:48:45;100097.38;;;17.66;75.88
61537;BME280;48695;53.480;-6.300;2022-09-09T06:51:13;100106.81;;;17.70;76.16
61537;BME280;48695;53.480;-6.300;2022-09-09T06:53:40;100103.22;;;17.71;76.24
61537;BME280;48695;53.480;-6.300;2022-09-09T06:56:23;100105.53;;;17.77;75.17
61537;BME280;48695;53.480;-6.300;2022-09-09T06:58:50;100094.00;;;17.64;76.02
61537;BME280;48695;53.480;-6.300;2022-09-09T07:01:21;100120.41;;;17.78;75.74
61537;BME280;48695;53.480;-6.300;2022-09-09T07:03:50;100122.97;;;17.80;75.64
61537;BME280;48695;53.480;-6.300;2022-09-09T07:06:23;100120.25;;;17.81;75.49
61537;BME280;48695;53.480;-6.300;2022-09-09T07:08:55;100130.53;;;17.86;75.83
61537;BME280;48695;53.480;-6.300;2022-09-09T07:11:22;100131.47;;;17.85;75.15
61537;BME280;48695;53.480;-6.300;2022-09-09T07:13:48;100137.59;;;17.85;76.02
61537;BME280;48695;53.480;-6.300;2022-09-09T07:16:18;100135.53;;;17.91;75.49
61537;BME280;48695;53.480;-6.300;2022-09-09T07:18:44;100143.53;;;17.89;76.15
61537;BME280;48695;53.480;-6.300;2022-09-09T07:21:11;100136.38;;;17.91;75.77
61537;BME280;48695;53.480;-6.300;2022-09-09T07:23:40;100141.56;;;17.93;76.36
61537;BME280;48695;53.480;-6.300;2022-09-09T07:26:13;100139.47;;;17.98;75.26
61537;BME280;48695;53.480;-6.300;2022-09-09T07:28:40;100151.00;;;17.97;75.64
61537;BME280;48695;53.480;-6.300;2022-09-09T07:31:07;100152.50;;;18.01;76.05
61537;BME280;48695;53.480;-6.300;2022-09-09T07:33:34;100152.50;;;18.01;75.96
61537;BME280;48695;53.480;-6.300;2022-09-09T07:36:26;100159.53;;;18.14;76.22
61537;BME280;48695;53.480;-6.300;2022-09-09T07:38:57;100169.47;;;18.25;75.65
61537;BME280;48695;53.480;-6.300;2022-09-09T07:41:25;100178.69;;;18.32;75.61
61537;BME280;48695;53.480;-6.300;2022-09-09T07:43:52;100164.63;;;18.32;75.99
61537;BME280;48695;53.480;-6.300;2022-09-09T07:46:23;100180.38;;;18.48;75.84
61537;BME280;48695;53.480;-6.300;2022-09-09T07:48:51;100177.53;;;18.51;75.90
61537;BME280;48695;53.480;-6.300;2022-09-09T07:51:29;100173.34;;;18.61;75.06
61537;BME280;48695;53.480;-6.300;2022-09-09T07:53:59;100178.44;;;18.64;75.85
61537;BME280;48695;53.480;-6.300;2022-09-09T07:56:26;100182.44;;;18.71;75.36
61537;BME280;48695;53.480;-6.300;2022-09-09T07:58:53;100172.78;;;18.70;75.47
61537;BME280;48695;53.480;-6.300;2022-09-09T08:01:27;100190.94;;;18.89;75.26
61537;BME280;48695;53.480;-6.300;2022-09-09T08:03:58;100176.03;;;18.88;75.63
61537;BME280;48695;53.480;-6.300;2022-09-09T08:06:25;100187.69;;;18.98;75.58
61537;BME280;48695;53.480;-6.300;2022-09-09T08:08:51;100197.72;;;19.20;74.37
61537;BME280;48695;53.480;-6.300;2022-09-09T08:11:18;100202.91;;;19.22;74.59
61537;BME280;48695;53.480;-6.300;2022-09-09T08:13:44;100204.94;;;19.31;74.77
61537;BME280;48695;53.480;-6.300;2022-09-09T08:16:13;100215.75;;;19.40;74.45
61537;BME280;48695;53.480;-6.300;2022-09-09T08:18:39;100220.84;;;19.43;74.49
61537;BME280;48695;53.480;-6.300;2022-09-09T08:21:12;100225.53;;;19.53;74.33
61537;BME280;48695;53.480;-6.300;2022-09-09T08:23:41;100228.72;;;19.58;73.75
61537;BME280;48695;53.480;-6.300;2022-09-09T08:26:11;100231.94;;;19.63;73.61
61537;BME280;48695;53.480;-6.300;2022-09-09T08:28:37;100236.28;;;19.64;74.15
61537;BME280;48695;53.480;-6.300;2022-09-09T08:31:13;100249.75;;;19.74;73.51
61537;BME280;48695;53.480;-6.300;2022-09-09T08:33:40;100234.19;;;19.69;73.47
61537;BME280;48695;53.480;-6.300;2022-09-09T08:36:09;100248.50;;;19.79;73.27
61537;BME280;48695;53.480;-6.300;2022-09-09T08:38:35;100252.09;;;19.78;72.98
61537;BME280;48695;53.480;-6.300;2022-09-09T08:44:02;100250.59;;;19.87;73.00
61537;BME280;48695;53.480;-6.300;2022-09-09T08:46:38;100260.34;;;19.86;73.37
61537;BME280;48695;53.480;-6.300;2022-09-09T08:52:00;100273.41;;;19.89;73.65
61537;BME280;48695;53.480;-6.300;2022-09-09T08:54:30;100275.63;;;19.95;73.17
61537;BME280;48695;53.480;-6.300;2022-09-09T08:56:58;100270.56;;;19.92;73.62
61537;BME280;48695;53.480;-6.300;2022-09-09T08:59:23;100279.56;;;20.03;73.24
61537;BME280;48695;53.480;-6.300;2022-09-09T09:13:17;100294.53;;;20.29;72.88
61537;BME280;48695;53.480;-6.300;2022-09-09T09:15:44;100305.78;;;20.33;72.69
61537;BME280;48695;53.480;-6.300;2022-09-09T09:18:12;100304.69;;;20.35;72.57
61537;BME280;48695;53.480;-6.300;2022-09-09T09:20:47;100312.22;;;20.41;72.13
61537;BME280;48695;53.480;-6.300;2022-09-09T09:23:32;100304.81;;;20.46;72.39
61537;BME280;48695;53.480;-6.300;2022-09-09T09:26:01;100314.06;;;20.54;72.11
61537;BME280;48695;53.480;-6.300;2022-09-09T09:28:31;100308.63;;;20.55;72.28
61537;BME280;48695;53.480;-6.300;2022-09-09T09:31:01;100315.50;;;20.58;71.83
61537;BME280;48695;53.480;-6.300;2022-09-09T09:36:08;100324.00;;;20.63;70.97
61537;BME280;48695;53.480;-6.300;2022-09-09T09:38:34;100327.69;;;20.73;71.53
61537;BME280;48695;53.480;-6.300;2022-09-09T09:40:59;100310.22;;;20.58;70.94
61537;BME280;48695;53.480;-6.300;2022-09-09T09:43:36;100338.97;;;20.77;71.18
61537;BME280;48695;53.480;-6.300;2022-09-09T09:46:05;100331.63;;;20.80;71.66
61537;BME280;48695;53.480;-6.300;2022-09-09T09:48:43;100343.72;;;20.84;71.39
61537;BME280;48695;53.480;-6.300;2022-09-09T09:51:13;100343.69;;;20.97;70.35
61537;BME280;48695;53.480;-6.300;2022-09-09T09:53:41;100347.50;;;21.06;70.58
61537;BME280;48695;53.480;-6.300;2022-09-09T09:56:09;100352.88;;;21.17;69.87
61537;BME280;48695;53.480;-6.300;2022-09-09T10:01:28;100349.69;;;21.48;71.19
61537;BME280;48695;53.480;-6.300;2022-09-09T10:06:35;100366.81;;;22.16;70.38
61537;BME280;48695;53.480;-6.300;2022-09-09T10:09:03;100365.16;;;22.38;69.32
61537;BME280;48695;53.480;-6.300;2022-09-09T10:11:47;100352.69;;;22.61;68.51
61537;BME280;48695;53.480;-6.300;2022-09-09T10:16:50;100362.03;;;23.00;68.55
61537;BME280;48695;53.480;-6.300;2022-09-09T10:30:22;100368.56;;;23.62;65.83
61537;BME280;48695;53.480;-6.300;2022-09-09T10:32:49;100370.50;;;23.71;67.04
61537;BME280;48695;53.480;-6.300;2022-09-09T10:35:47;100382.13;;;23.70;66.03
61537;BME280;48695;53.480;-6.300;2022-09-09T10:38:33;100377.19;;;23.65;65.02
61537;BME280;48695;53.480;-6.300;2022-09-09T10:41:18;100383.69;;;23.61;64.66
61537;BME280;48695;53.480;-6.300;2022-09-09T10:43:52;100389.06;;;23.50;65.39
61537;BME280;48695;53.480;-6.300;2022-09-09T10:46:37;100389.34;;;23.36;64.86
61537;BME280;48695;53.480;-6.300;2022-09-09T10:52:17;100392.88;;;23.25;64.44
61537;BME280;48695;53.480;-6.300;2022-09-09T10:55:12;100398.72;;;23.19;64.43
61537;BME280;48695;53.480;-6.300;2022-09-09T10:57:50;100402.59;;;23.15;64.88
61537;BME280;48695;53.480;-6.300;2022-09-09T11:00:25;100408.16;;;23.12;65.76
61537;BME280;48695;53.480;-6.300;2022-09-09T11:02:58;100402.84;;;23.12;64.80
61537;BME280;48695;53.480;-6.300;2022-09-09T11:08:13;100397.88;;;23.18;64.73
61537;BME280;48695;53.480;-6.300;2022-09-09T11:13:15;100410.53;;;23.48;64.70
61537;BME280;48695;53.480;-6.300;2022-09-09T11:15:46;100425.66;;;23.59;64.06
61537;BME280;48695;53.480;-6.300;2022-09-09T11:18:20;100420.56;;;23.67;63.05
61537;BME280;48695;53.480;-6.300;2022-09-09T11:20:53;100420.91;;;23.74;63.46
61537;BME280;48695;53.480;-6.300;2022-09-09T11:23:25;100427.69;;;23.78;63.44
61537;BME280;48695;53.480;-6.300;2022-09-09T11:25:57;100419.56;;;23.79;63.21
61537;BME280;48695;53.480;-6.300;2022-09-09T11:28:41;100429.38;;;23.79;62.12
61537;BME280;48695;53.480;-6.300;2022-09-09T11:31:35;100431.19;;;23.78;62.99
61537;BME280;48695;53.480;-6.300;2022-09-09T11:40:25;100435.97;;;23.64;63.87
61537;BME280;48695;53.480;-6.300;2022-09-09T11:43:15;100438.97;;;23.59;62.20
61537;BME280;48695;53.480;-6.300;2022-09-09T11:45:50;100440.31;;;23.53;63.23
61537;BME280;48695;53.480;-6.300;2022-09-09T11:48:57;100445.03;;;23.50;63.66
61537;BME280;48695;53.480;-6.300;2022-09-09T11:53:48;100445.06;;;23.39;63.84
61537;BME280;48695;53.480;-6.300;2022-09-09T11:56:47;100448.56;;;23.39;63.68
61537;BME280;48695;53.480;-6.300;2022-09-09T12:01:59;100453.09;;;23.27;62.23
61537;BME280;48695;53.480;-6.300;2022-09-09T12:04:57;100461.91;;;23.28;63.31
61537;BME280;48695;53.480;-6.300;2022-09-09T12:09:58;100457.81;;;23.13;62.61
61537;BME280;48695;53.480;-6.300;2022-09-09T12:12:30;100463.22;;;23.11;63.81
61537;BME280;48695;53.480;-6.300;2022-09-09T12:17:30;100462.63;;;23.30;65.34
61537;BME280;48695;53.480;-6.300;2022-09-09T12:20:15;100457.78;;;23.58;64.47
61537;BME280;48695;53.480;-6.300;2022-09-09T12:28:27;100463.97;;;24.01;63.85
61537;BME280;48695;53.480;-6.300;2022-09-09T12:31:02;100469.53;;;24.10;64.15
61537;BME280;48695;53.480;-6.300;2022-09-09T12:33:39;100474.00;;;24.09;62.63
61537;BME280;48695;53.480;-6.300;2022-09-09T12:36:12;100470.75;;;24.05;60.52
61537;BME280;48695;53.480;-6.300;2022-09-09T12:38:41;100469.06;;;24.04;63.25
61537;BME280;48695;53.480;-6.300;2022-09-09T12:41:19;100478.91;;;24.25;64.09
61537;BME280;48695;53.480;-6.300;2022-09-09T12:43:44;100480.56;;;24.37;63.55
61537;BME280;48695;53.480;-6.300;2022-09-09T12:46:34;100478.50;;;24.62;62.67
61537;BME280;48695;53.480;-6.300;2022-09-09T12:49:02;100482.94;;;24.72;62.02
61537;BME280;48695;53.480;-6.300;2022-09-09T12:51:29;100488.94;;;24.85;60.98
61537;BME280;48695;53.480;-6.300;2022-09-09T12:53:56;100488.06;;;24.85;60.92
61537;BME280;48695;53.480;-6.300;2022-09-09T12:56:25;100485.53;;;24.83;61.91
61537;BME280;48695;53.480;-6.300;2022-09-09T12:58:53;100492.81;;;24.81;62.92
61537;BME280;48695;53.480;-6.300;2022-09-09T13:01:31;100491.84;;;24.82;62.81
61537;BME280;48695;53.480;-6.300;2022-09-09T13:03:58;100492.75;;;24.72;63.57
61537;BME280;48695;53.480;-6.300;2022-09-09T13:06:31;100504.44;;;24.71;63.31
61537;BME280;48695;53.480;-6.300;2022-09-09T13:08:59;100505.34;;;24.60;64.12
61537;BME280;48695;53.480;-6.300;2022-09-09T13:11:33;100494.47;;;24.52;63.88
61537;BME280;48695;53.480;-6.300;2022-09-09T13:14:01;100509.78;;;24.50;63.48
61537;BME280;48695;53.480;-6.300;2022-09-09T13:16:29;100517.19;;;24.46;65.20
61537;BME280;48695;53.480;-6.300;2022-09-09T13:19:00;100511.38;;;24.41;65.43
61537;BME280;48695;53.480;-6.300;2022-09-09T13:21:34;100517.44;;;24.43;63.31
61537;BME280;48695;53.480;-6.300;2022-09-09T13:24:00;100514.53;;;24.35;64.77
61537;BME280;48695;53.480;-6.300;2022-09-09T13:26:28;100522.78;;;24.32;62.63
61537;BME280;48695;53.480;-6.300;2022-09-09T13:29:06;100524.47;;;24.33;65.61
61537;BME280;48695;53.480;-6.300;2022-09-09T13:31:35;100529.59;;;24.36;64.46
61537;BME280;48695;53.480;-6.300;2022-09-09T13:34:22;100524.19;;;24.47;64.85
61537;BME280;48695;53.480;-6.300;2022-09-09T13:36:54;100529.28;;;24.50;61.20
61537;BME280;48695;53.480;-6.300;2022-09-09T13:39:21;100536.94;;;24.55;61.11
61537;BME280;48695;53.480;-6.300;2022-09-09T13:41:48;100538.47;;;24.57;61.81
61537;BME280;48695;53.480;-6.300;2022-09-09T13:44:18;100540.06;;;24.60;63.25
61537;BME280;48695;53.480;-6.300;2022-09-09T13:46:45;100546.28;;;24.49;63.00
61537;BME280;48695;53.480;-6.300;2022-09-09T13:51:42;100542.31;;;24.32;62.99
61537;BME280;48695;53.480;-6.300;2022-09-09T13:54:12;100547.44;;;24.24;62.89
61537;BME280;48695;53.480;-6.300;2022-09-09T13:56:39;100545.91;;;24.11;63.67
61537;BME280;48695;53.480;-6.300;2022-09-09T13:59:09;100541.31;;;24.01;64.46
61537;BME280;48695;53.480;-6.300;2022-09-09T14:01:35;100554.44;;;23.93;65.02
61537;BME280;48695;53.480;-6.300;2022-09-09T14:04:03;100555.66;;;23.89;65.40
61537;BME280;48695;53.480;-6.300;2022-09-09T14:06:29;100549.84;;;23.84;65.92
61537;BME280;48695;53.480;-6.300;2022-09-09T14:08:55;100533.13;;;23.71;66.03
61537;BME280;48695;53.480;-6.300;2022-09-09T14:11:20;100551.06;;;23.80;66.79
61537;BME280;48695;53.480;-6.300;2022-09-09T14:13:47;100558.81;;;23.83;66.52
61537;BME280;48695;53.480;-6.300;2022-09-09T14:16:16;100561.34;;;23.96;67.23
61537;BME280;48695;53.480;-6.300;2022-09-09T14:18:43;100572.34;;;24.14;64.90
61537;BME280;48695;53.480;-6.300;2022-09-09T14:21:09;100569.84;;;24.44;66.63
61537;BME280;48695;53.480;-6.300;2022-09-09T14:23:34;100564.34;;;24.78;62.95
61537;BME280;48695;53.480;-6.300;2022-09-09T14:26:00;100566.47;;;25.16;64.31
61537;BME280;48695;53.480;-6.300;2022-09-09T14:28:26;100562.97;;;25.46;62.26
61537;BME280;48695;53.480;-6.300;2022-09-09T14:30:53;100565.88;;;25.74;61.85
61537;BME280;48695;53.480;-6.300;2022-09-09T14:33:18;100561.31;;;25.95;62.92
61537;BME280;48695;53.480;-6.300;2022-09-09T14:35:44;100566.88;;;26.23;61.98
61537;BME280;48695;53.480;-6.300;2022-09-09T14:38:09;100562.41;;;26.52;60.85
61537;BME280;48695;53.480;-6.300;2022-09-09T14:40:36;100566.78;;;26.82;60.15
61537;BME280;48695;53.480;-6.300;2022-09-09T14:43:02;100568.03;;;27.07;56.72
61537;BME280;48695;53.480;-6.300;2022-09-09T14:45:28;100563.00;;;27.32;57.04
61537;BME280;48695;53.480;-6.300;2022-09-09T14:47:54;100562.06;;;27.60;56.27
61537;BME280;48695;53.480;-6.300;2022-09-09T14:50:20;100560.66;;;27.93;54.66
61537;BME280;48695;53.480;-6.300;2022-09-09T14:52:46;100562.66;;;28.27;55.52
61537;BME280;48695;53.480;-6.300;2022-09-09T14:55:12;100558.16;;;28.63;56.07
61537;BME280;48695;53.480;-6.300;2022-09-09T14:57:38;100559.84;;;29.00;50.87
61537;BME280;48695;53.480;-6.300;2022-09-09T15:00:05;100557.97;;;29.27;52.17
61537;BME280;48695;53.480;-6.300;2022-09-09T15:02:31;100566.13;;;29.43;50.58
61537;BME280;48695;53.480;-6.300;2022-09-09T15:04:56;100568.03;;;29.51;51.08